createdAt,value
2018-07-29T00:25:04.073Z,119
2018-07-29T00:30:04.078Z,119
2018-07-29T00:35:04.074Z,119
2018-07-29T12:40:03.486Z,119
2018-07-29T12:45:03.478Z,119
2018-07-29T12:50:03.590Z,119
2018-07-29T12:55:03.484Z,119
2018-07-29T13:00:03.492Z,119
2018-07-29T13:05:03.483Z,119
2018-07-29T13:10:03.485Z,119
2018-07-29T13:15:03.508Z,119
2018-07-29T13:20:03.645Z,119
2018-07-29T13:25:03.494Z,119
2018-07-29T13:30:03.518Z,119
2018-07-29T13:35:03.498Z,119
2018-07-29T13:40:03.499Z,119
2018-07-29T13:45:03.523Z,119
2018-07-29T13:50:03.506Z,119
2018-07-29T13:55:03.510Z,119
2018-07-29T14:00:03.529Z,119
2018-07-29T14:05:03.515Z,119
2018-07-29T14:10:03.514Z,119
2018-07-29T14:15:03.546Z,119
2018-07-29T14:20:03.524Z,119
2018-07-29T14:25:03.524Z,119
2018-07-29T14:30:03.535Z,119
2018-07-29T14:35:03.528Z,106.54
2018-07-29T14:40:03.536Z,77.93
2018-07-29T14:45:03.544Z,53.4
2018-07-29T14:50:03.542Z,39.94
2018-07-29T14:55:03.543Z,37.38
2018-07-29T15:00:03.578Z,38.79
2018-07-29T15:05:03.545Z,36.97
2018-07-29T15:10:03.547Z,39.34
2018-07-29T15:15:03.554Z,31.85
2018-07-29T15:20:03.557Z,31.18
2018-07-29T15:25:03.560Z,30.43
2018-07-29T15:30:03.564Z,22.58
2018-07-29T15:35:03.567Z,23.48
2018-07-29T15:40:03.613Z,22.58
2018-07-29T15:45:03.567Z,19.94
2018-07-29T15:50:03.565Z,18.91
2018-07-29T15:55:03.577Z,21.97
2018-07-29T16:00:03.571Z,22.93
2018-07-29T16:05:03.582Z,34.57
2018-07-29T16:10:03.599Z,38.48
2018-07-29T16:15:03.579Z,54.5
2018-07-29T16:20:03.586Z,58.72
2018-07-29T16:25:03.596Z,53.67
2018-07-29T16:30:03.591Z,59.43
2018-07-29T16:35:03.589Z,65.22
2018-07-29T16:40:03.608Z,70.47
2018-07-29T16:45:03.602Z,63.56
2018-07-29T16:50:03.647Z,69.92
2018-07-29T16:55:03.616Z,56.99
2018-07-29T17:00:03.613Z,73.85
2018-07-29T17:05:03.615Z,96.62
2018-07-29T17:10:03.751Z,82.46
2018-07-29T17:15:03.631Z,119
2018-07-29T17:20:03.637Z,119
2018-07-29T17:25:03.625Z,119
2018-07-29T17:30:03.640Z,119
2018-07-29T17:35:03.638Z,119
2018-07-29T17:40:03.650Z,119
2018-07-29T17:45:03.634Z,119
2018-07-29T17:50:03.634Z,119
2018-07-29T17:55:03.643Z,119
2018-07-29T18:00:03.652Z,119
2018-07-29T18:05:03.689Z,119
2018-07-29T18:10:03.648Z,119
2018-07-29T18:15:03.771Z,119
2018-07-29T18:20:03.662Z,119
2018-07-29T18:25:03.664Z,119
2018-07-29T18:30:03.676Z,119
2018-07-29T18:35:03.670Z,119
2018-07-29T18:40:03.659Z,119
2018-07-29T18:45:03.674Z,119
2018-07-29T18:50:03.681Z,119
2018-07-29T18:55:03.665Z,119
2018-07-29T19:00:03.678Z,119
2018-07-29T19:05:03.672Z,119
2018-07-29T19:10:03.681Z,119
2018-07-29T19:15:03.691Z,119
2018-07-29T19:20:03.685Z,119
2018-07-29T19:25:03.685Z,119
2018-07-29T19:30:03.695Z,119
2018-07-29T19:35:03.690Z,119
2018-07-29T19:40:03.698Z,119
2018-07-29T19:45:03.792Z,119
2018-07-29T19:50:03.699Z,119
2018-07-29T19:55:03.703Z,119
2018-07-29T20:00:03.720Z,119
2018-07-29T20:05:03.703Z,119
2018-07-29T20:10:03.709Z,119
2018-07-29T20:15:03.728Z,119
2018-07-29T20:20:03.712Z,119
2018-07-29T20:25:03.743Z,119
2018-07-29T20:30:03.737Z,119
2018-07-29T20:35:03.722Z,119
2018-07-29T20:40:03.730Z,119
2018-07-29T20:45:03.791Z,119
2018-07-29T20:50:03.736Z,119
2018-07-29T20:55:03.734Z,119
2018-07-29T21:00:03.748Z,119
2018-07-29T21:05:03.743Z,119
2018-07-29T21:10:03.743Z,119
2018-07-29T21:15:03.759Z,119
2018-07-29T21:20:03.749Z,119
2018-07-29T21:25:03.751Z,119
2018-07-29T21:30:03.771Z,119
2018-07-29T21:35:03.754Z,119
2018-07-29T21:40:03.760Z,119
2018-07-29T21:45:03.778Z,119
2018-07-29T21:50:03.761Z,119
2018-07-29T21:55:03.766Z,119
2018-07-29T22:00:03.776Z,119
2018-07-29T22:05:03.770Z,119
2018-07-29T22:10:03.772Z,119
2018-07-29T22:15:03.782Z,119
2018-07-29T22:20:03.784Z,119
2018-07-29T22:25:03.783Z,119
2018-07-29T22:30:03.800Z,119
2018-07-29T22:35:03.785Z,119
2018-07-29T22:40:03.788Z,119
2018-07-29T22:45:03.796Z,119
2018-07-29T22:50:03.799Z,119
2018-07-29T22:55:03.797Z,119
2018-07-29T23:00:03.807Z,119
2018-07-29T23:05:03.807Z,119
2018-07-29T23:10:03.809Z,119
2018-07-29T23:15:03.813Z,119
2018-07-29T23:20:03.809Z,119
2018-07-29T23:25:03.816Z,119
2018-07-29T23:30:03.825Z,119
2018-07-29T23:35:03.820Z,119
2018-07-29T23:40:03.822Z,119
2018-07-29T23:45:03.826Z,119
2018-07-29T23:50:03.837Z,119
2018-07-29T23:55:03.882Z,119
